sensor_id;sensor_type;location;lat;lon;timestamp;pressure;altitude;pressure_sealevel;temperature;humidity
12799;BME280;19250;42.646;26.980;2023-11-18T00:00:02;97955.47;;;13.63;100.00
12799;BME280;19250;42.646;26.980;2023-11-18T00:02:38;97961.66;;;13.70;100.00
12799;BME280;19250;42.646;26.980;2023-11-18T00:05:08;97955.72;;;13.88;100.00
12799;BME280;19250;42.646;26.980;2023-11-18T00:07:35;97958.38;;;13.81;100.00
12799;BME280;19250;42.646;26.980;2023-11-18T00:10:04;97947.47;;;13.70;100.00
12799;BME280;19250;42.646;26.980;2023-11-18T00:12:32;97956.91;;;13.59;100.00
12799;BME280;19250;42.646;26.980;2023-11-18T00:15:03;97950.50;;;13.53;100.00
12799;BME280;19250;42.646;26.980;2023-11-18T00:17:31;97952.56;;;13.51;100.00
12799;BME280;19250;42.646;26.980;2023-11-18T00:19:59;97920.84;;;13.42;100.00
12799;BME280;19250;42.646;26.980;2023-11-18T00:22:26;97944.56;;;13.71;100.00
12799;BME280;19250;42.646;26.980;2023-11-18T00:24:54;97948.09;;;13.78;100.00
12799;BME280;19250;42.646;26.980;2023-11-18T00:27:22;97941.06;;;13.77;100.00
12799;BME280;19250;42.646;26.980;2023-11-18T00:29:50;97938.75;;;13.61;100.00
12799;BME280;19250;42.646;26.980;2023-11-18T00:32:20;97933.84;;;13.71;100.00
12799;BME280;19250;42.646;26.980;2023-11-18T00:34:47;97944.75;;;13.76;100.00
12799;BME280;19250;42.646;26.980;2023-11-18T00:37:14;97946.84;;;13.81;100.00
12799;BME280;19250;42.646;26.980;2023-11-18T00:39:43;97946.63;;;13.82;100.00
12799;BME280;19250;42.646;26.980;2023-11-18T00:42:10;97832.78;;;13.06;100.00
12799;BME280;19250;42.646;26.980;2023-11-18T00:44:37;97937.56;;;13.96;100.00
12799;BME280;19250;42.646;26.980;2023-11-18T00:47:05;97945.81;;;13.95;100.00
12799;BME280;19250;42.646;26.980;2023-11-18T00:49:34;97953.84;;;13.95;100.00
12799;BME280;19250;42.646;26.980;2023-11-18T00:52:01;97950.16;;;14.02;100.00
12799;BME280;19250;42.646;26.980;2023-11-18T00:54:29;97942.72;;;13.85;100.00
12799;BME280;19250;42.646;26.980;2023-11-18T00:56:56;97934.88;;;13.90;100.00
12799;BME280;19250;42.646;26.980;2023-11-18T00:59:24;97940.25;;;13.96;100.00
12799;BME280;19250;42.646;26.980;2023-11-18T01:01:52;97948.06;;;13.98;100.00
12799;BME280;19250;42.646;26.980;2023-11-18T01:04:20;97928.91;;;14.01;100.00
12799;BME280;19250;42.646;26.980;2023-11-18T01:06:48;97897.38;;;13.57;100.00
12799;BME280;19250;42.646;26.980;2023-11-18T01:09:17;97917.56;;;13.79;100.00
12799;BME280;19250;42.646;26.980;2023-11-18T01:11:45;97914.69;;;13.87;100.00
12799;BME280;19250;42.646;26.980;2023-11-18T01:14:12;97868.91;;;13.43;100.00
12799;BME280;19250;42.646;26.980;2023-11-18T01:16:40;97907.03;;;13.58;100.00
12799;BME280;19250;42.646;26.980;2023-11-18T01:19:07;97898.56;;;13.35;100.00
12799;BME280;19250;42.646;26.980;2023-11-18T01:21:35;97898.16;;;13.31;100.00
12799;BME280;19250;42.646;26.980;2023-11-18T01:24:05;97900.84;;;13.44;100.00
12799;BME280;19250;42.646;26.980;2023-11-18T01:26:34;97894.84;;;13.42;100.00
12799;BME280;19250;42.646;26.980;2023-11-18T01:29:02;97897.53;;;13.49;100.00
12799;BME280;19250;42.646;26.980;2023-11-18T01:31:29;97900.22;;;13.36;100.00
12799;BME280;19250;42.646;26.980;2023-11-18T01:33:57;97901.88;;;13.43;100.00
12799;BME280;19250;42.646;26.980;2023-11-18T01:36:25;97904.94;;;13.34;100.00
12799;BME280;19250;42.646;26.980;2023-11-18T01:38:53;97899.16;;;13.17;100.00
12799;BME280;19250;42.646;26.980;2023-11-18T01:41:22;97906.31;;;13.10;100.00
12799;BME280;19250;42.646;26.980;2023-11-18T01:43:50;97905.13;;;13.19;100.00
12799;BME280;19250;42.646;26.980;2023-11-18T01:46:19;97913.41;;;12.83;100.00
12799;BME280;19250;42.646;26.980;2023-11-18T01:48:49;97904.66;;;13.09;100.00
12799;BME280;19250;42.646;26.980;2023-11-18T01:51:17;97925.38;;;12.94;100.00
12799;BME280;19250;42.646;26.980;2023-11-18T01:53:47;97932.00;;;13.04;100.00
12799;BME280;19250;42.646;26.980;2023-11-18T01:56:16;97922.22;;;13.25;100.00
12799;BME280;19250;42.646;26.980;2023-11-18T01:58:48;97927.78;;;13.23;100.00
12799;BME280;19250;42.646;26.980;2023-11-18T02:01:16;97935.59;;;13.25;100.00
12799;BME280;19250;42.646;26.980;2023-11-18T02:03:44;97933.16;;;13.30;100.00
12799;BME280;19250;42.646;26.980;2023-11-18T02:06:14;97926.56;;;13.26;100.00
12799;BME280;19250;42.646;26.980;2023-11-18T02:08:42;97927.25;;;13.00;100.00
12799;BME280;19250;42.646;26.980;2023-11-18T02:11:16;97926.06;;;13.09;100.00
12799;BME280;19250;42.646;26.980;2023-11-18T02:13:49;97925.81;;;13.04;100.00
12799;BME280;19250;42.646;26.980;2023-11-18T02:16:20;97922.94;;;12.99;100.00
12799;BME280;19250;42.646;26.980;2023-11-18T02:18:49;97912.03;;;13.00;100.00
12799;BME280;19250;42.646;26.980;2023-11-18T02:21:17;97918.19;;;13.01;100.00
12799;BME280;19250;42.646;26.980;2023-11-18T02:23:48;97909.16;;;13.02;100.00
12799;BME280;19250;42.646;26.980;2023-11-18T02:26:22;97903.31;;;12.85;100.00
12799;BME280;19250;42.646;26.980;2023-11-18T02:28:50;97907.81;;;12.78;100.00
12799;BME280;19250;42.646;26.980;2023-11-18T02:31:23;97920.72;;;12.62;100.00
12799;BME280;19250;42.646;26.980;2023-11-18T02:33:57;97921.16;;;12.31;100.00
12799;BME280;19250;42.646;26.980;2023-11-18T02:36:32;97919.47;;;12.30;100.00
12799;BME280;19250;42.646;26.980;2023-11-18T02:39:05;97915.34;;;12.27;100.00
12799;BME280;19250;42.646;26.980;2023-11-18T02:41:39;97925.16;;;12.14;100.00
12799;BME280;19250;42.646;26.980;2023-11-18T02:44:07;97938.28;;;11.87;100.00
12799;BME280;19250;42.646;26.980;2023-11-18T02:46:36;97907.53;;;11.70;100.00
12799;BME280;19250;42.646;26.980;2023-11-18T02:49:04;97926.53;;;11.61;100.00
12799;BME280;19250;42.646;26.980;2023-11-18T02:51:32;97946.34;;;11.52;100.00
12799;BME280;19250;42.646;26.980;2023-11-18T02:54:05;97931.81;;;11.75;100.00
12799;BME280;19250;42.646;26.980;2023-11-18T02:56:37;97928.81;;;11.85;100.00
12799;BME280;19250;42.646;26.980;2023-11-18T02:59:05;97931.94;;;11.67;100.00
12799;BME280;19250;42.646;26.980;2023-11-18T03:01:33;97926.69;;;11.59;100.00
12799;BME280;19250;42.646;26.980;2023-11-18T03:04:00;97940.31;;;11.43;100.00
12799;BME280;19250;42.646;26.980;2023-11-18T03:06:28;97948.09;;;11.23;100.00
12799;BME280;19250;42.646;26.980;2023-11-18T03:08:56;97929.09;;;11.12;100.00
12799;BME280;19250;42.646;26.980;2023-11-18T03:11:24;97928.25;;;11.11;100.00
12799;BME280;19250;42.646;26.980;2023-11-18T03:13:52;97937.25;;;11.25;100.00
12799;BME280;19250;42.646;26.980;2023-11-18T03:16:20;97918.00;;;11.29;100.00
12799;BME280;19250;42.646;26.980;2023-11-18T03:18:47;97912.91;;;11.34;100.00
12799;BME280;19250;42.646;26.980;2023-11-18T03:21:15;97891.94;;;11.31;100.00
12799;BME280;19250;42.646;26.980;2023-11-18T03:23:42;97905.63;;;11.43;100.00
12799;BME280;19250;42.646;26.980;2023-11-18T03:26:10;97901.75;;;11.45;100.00
12799;BME280;19250;42.646;26.980;2023-11-18T03:28:37;97891.00;;;11.39;100.00
12799;BME280;19250;42.646;26.980;2023-11-18T03:31:07;97893.44;;;11.19;100.00
12799;BME280;19250;42.646;26.980;2023-11-18T03:33:35;97890.09;;;11.11;100.00
12799;BME280;19250;42.646;26.980;2023-11-18T03:36:03;97889.66;;;11.28;100.00
12799;BME280;19250;42.646;26.980;2023-11-18T03:38:31;97893.91;;;11.23;100.00
12799;BME280;19250;42.646;26.980;2023-11-18T03:40:58;97897.25;;;11.10;100.00
12799;BME280;19250;42.646;26.980;2023-11-18T03:43:25;97894.66;;;11.17;100.00
12799;BME280;19250;42.646;26.980;2023-11-18T03:45:54;97894.66;;;11.17;100.00
12799;BME280;19250;42.646;26.980;2023-11-18T03:48:24;97892.00;;;11.17;100.00
12799;BME280;19250;42.646;26.980;2023-11-18T03:50:51;97896.31;;;11.18;100.00
12799;BME280;19250;42.646;26.980;2023-11-18T03:53:19;97890.47;;;11.08;100.00
12799;BME280;19250;42.646;26.980;2023-11-18T03:55:47;97889.84;;;11.27;100.00
12799;BME280;19250;42.646;26.980;2023-11-18T03:58:14;97887.88;;;11.35;100.00
12799;BME280;19250;42.646;26.980;2023-11-18T04:00:41;97873.47;;;11.30;100.00
12799;BME280;19250;42.646;26.980;2023-11-18T04:03:09;97858.00;;;11.25;100.00
12799;BME280;19250;42.646;26.980;2023-11-18T04:05:38;97859.16;;;11.16;100.00
12799;BME280;19250;42.646;26.980;2023-11-18T04:08:05;97858.84;;;11.05;100.00
12799;BME280;19250;42.646;26.980;2023-11-18T04:10:33;97856.81;;;11.07;100.00
12799;BME280;19250;42.646;26.980;2023-11-18T04:13:00;97833.59;;;11.01;100.00
12799;BME280;19250;42.646;26.980;2023-11-18T04:15:28;97836.03;;;10.81;100.00
12799;BME280;19250;42.646;26.980;2023-11-18T04:17:55;97795.84;;;10.47;100.00
12799;BME280;19250;42.646;26.980;2023-11-18T04:20:23;97842.38;;;10.80;100.00
12799;BME280;19250;42.646;26.980;2023-11-18T04:22:51;97844.38;;;10.57;100.00
12799;BME280;19250;42.646;26.980;2023-11-18T04:25:20;97860.06;;;10.66;100.00
12799;BME280;19250;42.646;26.980;2023-11-18T04:27:47;97858.16;;;10.60;100.00
12799;BME280;19250;42.646;26.980;2023-11-18T04:30:14;97856.09;;;10.62;100.00
12799;BME280;19250;42.646;26.980;2023-11-18T04:32:42;97846.81;;;10.58;100.00
12799;BME280;19250;42.646;26.980;2023-11-18T04:35:10;97849.25;;;10.53;100.00
12799;BME280;19250;42.646;26.980;2023-11-18T04:37:37;97851.47;;;10.35;100.00
12799;BME280;19250;42.646;26.980;2023-11-18T04:40:11;97862.19;;;10.56;100.00
12799;BME280;19250;42.646;26.980;2023-11-18T04:42:39;97866.06;;;10.54;100.00
12799;BME280;19250;42.646;26.980;2023-11-18T04:45:07;97870.47;;;10.47;100.00
12799;BME280;19250;42.646;26.980;2023-11-18T04:47:35;97864.41;;;10.53;100.00
12799;BME280;19250;42.646;26.980;2023-11-18T04:50:04;97862.34;;;10.69;100.00
12799;BME280;19250;42.646;26.980;2023-11-18T04:52:34;97855.81;;;10.72;100.00
12799;BME280;19250;42.646;26.980;2023-11-18T04:55:03;97854.16;;;10.71;100.00
12799;BME280;19250;42.646;26.980;2023-11-18T04:57:32;97850.88;;;10.69;100.00
12799;BME280;19250;42.646;26.980;2023-11-18T05:00:01;97846.88;;;10.79;100.00
12799;BME280;19250;42.646;26.980;2023-11-18T05:02:36;97843.41;;;10.64;100.00
12799;BME280;19250;42.646;26.980;2023-11-18T05:05:04;97817.63;;;10.50;100.00
12799;BME280;19250;42.646;26.980;2023-11-18T05:07:33;97796.16;;;10.37;100.00
12799;BME280;19250;42.646;26.980;2023-11-18T05:10:01;97831.06;;;10.42;100.00
12799;BME280;19250;42.646;26.980;2023-11-18T05:12:28;97845.88;;;10.30;100.00
12799;BME280;19250;42.646;26.980;2023-11-18T05:14:57;97839.06;;;10.27;100.00
12799;BME280;19250;42.646;26.980;2023-11-18T05:17:25;97842.09;;;10.24;100.00
12799;BME280;19250;42.646;26.980;2023-11-18T05:19:53;97822.09;;;10.14;100.00
12799;BME280;19250;42.646;26.980;2023-11-18T05:22:20;97838.16;;;10.20;100.00
12799;BME280;19250;42.646;26.980;2023-11-18T05:24:48;97800.19;;;10.04;100.00
12799;BME280;19250;42.646;26.980;2023-11-18T05:27:15;97824.75;;;10.14;100.00
12799;BME280;19250;42.646;26.980;2023-11-18T05:29:43;97839.16;;;10.05;100.00
12799;BME280;19250;42.646;26.980;2023-11-18T05:32:15;97844.28;;;9.92;100.00
12799;BME280;19250;42.646;26.980;2023-11-18T05:34:42;97728.59;;;9.21;100.00
12799;BME280;19250;42.646;26.980;2023-11-18T05:37:10;97842.28;;;9.94;100.00
12799;BME280;19250;42.646;26.980;2023-11-18T05:39:37;97832.34;;;10.02;100.00
12799;BME280;19250;42.646;26.980;2023-11-18T05:42:09;97834.91;;;9.96;100.00
12799;BME280;19250;42.646;26.980;2023-11-18T05:44:37;97832.44;;;9.94;100.00
12799;BME280;19250;42.646;26.980;2023-11-18T05:47:06;97839.16;;;10.05;100.00
12799;BME280;19250;42.646;26.980;2023-11-18T05:49:35;97854.88;;;10.14;100.00
12799;BME280;19250;42.646;26.980;2023-11-18T05:52:03;97867.81;;;10.03;100.00
12799;BME280;19250;42.646;26.980;2023-11-18T05:54:30;97855.94;;;10.05;100.00
12799;BME280;19250;42.646;26.980;2023-11-18T05:56:58;97858.72;;;10.12;100.00
12799;BME280;19250;42.646;26.980;2023-11-18T05:59:25;97861.56;;;9.96;100.00
12799;BME280;19250;42.646;26.980;2023-11-18T06:01:53;97870.28;;;10.04;100.00
12799;BME280;19250;42.646;26.980;2023-11-18T06:04:22;97855.34;;;10.18;100.00
12799;BME280;19250;42.646;26.980;2023-11-18T06:06:51;97844.03;;;10.16;100.00
12799;BME280;19250;42.646;26.980;2023-11-18T06:09:19;97814.09;;;9.99;100.00
12799;BME280;19250;42.646;26.980;2023-11-18T06:11:51;97805.44;;;9.97;100.00
12799;BME280;19250;42.646;26.980;2023-11-18T06:14:19;97858.72;;;10.12;100.00
12799;BME280;19250;42.646;26.980;2023-11-18T06:16:47;97870.06;;;9.91;100.00
12799;BME280;19250;42.646;26.980;2023-11-18T06:19:16;97862.84;;;10.00;100.00
12799;BME280;19250;42.646;26.980;2023-11-18T06:21:43;97868.44;;;10.05;100.00
12799;BME280;19250;42.646;26.980;2023-11-18T06:24:13;97867.34;;;9.84;100.00
12799;BME280;19250;42.646;26.980;2023-11-18T06:26:40;97855.38;;;9.95;100.00
12799;BME280;19250;42.646;26.980;2023-11-18T06:29:08;97853.66;;;9.88;100.00
12799;BME280;19250;42.646;26.980;2023-11-18T06:31:35;97847.66;;;9.85;100.00
12799;BME280;19250;42.646;26.980;2023-11-18T06:34:02;97852.09;;;9.93;100.00
12799;BME280;19250;42.646;26.980;2023-11-18T06:36:30;97857.53;;;10.00;100.00
12799;BME280;19250;42.646;26.980;2023-11-18T06:38:57;97821.78;;;9.94;100.00
12799;BME280;19250;42.646;26.980;2023-11-18T06:41:26;97854.88;;;10.14;100.00
12799;BME280;19250;42.646;26.980;2023-11-18T06:43:59;97858.31;;;9.71;100.00
12799;BME280;19250;42.646;26.980;2023-11-18T06:46:35;97849.03;;;9.81;100.00
12799;BME280;19250;42.646;26.980;2023-11-18T06:49:05;97818.84;;;9.74;100.00
12799;BME280;19250;42.646;26.980;2023-11-18T06:51:35;97843.28;;;9.78;100.00
12799;BME280;19250;42.646;26.980;2023-11-18T06:54:04;97839.03;;;9.69;100.00
12799;BME280;19250;42.646;26.980;2023-11-18T06:56:37;97836.44;;;9.61;100.00
12799;BME280;19250;42.646;26.980;2023-11-18T06:59:05;97840.00;;;9.53;100.00
12799;BME280;19250;42.646;26.980;2023-11-18T07:01:32;97842.81;;;9.74;100.00
12799;BME280;19250;42.646;26.980;2023-11-18T07:04:01;97835.09;;;9.79;100.00
12799;BME280;19250;42.646;26.980;2023-11-18T07:06:28;97829.19;;;9.69;100.00
12799;BME280;19250;42.646;26.980;2023-11-18T07:08:56;97756.84;;;9.22;100.00
12799;BME280;19250;42.646;26.980;2023-11-18T07:11:26;97831.00;;;9.54;100.00
12799;BME280;19250;42.646;26.980;2023-11-18T07:13:55;97828.69;;;9.51;100.00
12799;BME280;19250;42.646;26.980;2023-11-18T07:16:25;97799.75;;;9.56;100.00
12799;BME280;19250;42.646;26.980;2023-11-18T07:18:52;97799.28;;;9.67;100.00
12799;BME280;19250;42.646;26.980;2023-11-18T07:21:20;97792.13;;;9.68;100.00
12799;BME280;19250;42.646;26.980;2023-11-18T07:23:48;97796.41;;;9.54;100.00
12799;BME280;19250;42.646;26.980;2023-11-18T07:26:15;97811.38;;;9.55;100.00
12799;BME280;19250;42.646;26.980;2023-11-18T07:28:43;97834.59;;;9.61;100.00
12799;BME280;19250;42.646;26.980;2023-11-18T07:31:12;97843.44;;;9.39;100.00
12799;BME280;19250;42.646;26.980;2023-11-18T07:33:39;97834.75;;;9.45;100.00
12799;BME280;19250;42.646;26.980;2023-11-18T07:36:10;97833.50;;;9.56;100.00
12799;BME280;19250;42.646;26.980;2023-11-18T07:38:37;97837.84;;;9.71;100.00
12799;BME280;19250;42.646;26.980;2023-11-18T07:41:08;97820.47;;;9.75;100.00
12799;BME280;19250;42.646;26.980;2023-11-18T07:43:35;97806.81;;;9.78;100.00
12799;BME280;19250;42.646;26.980;2023-11-18T07:46:04;97796.38;;;10.21;100.00
12799;BME280;19250;42.646;26.980;2023-11-18T07:48:35;97796.22;;;10.44;100.00
12799;BME280;19250;42.646;26.980;2023-11-18T07:51:02;97805.47;;;10.26;100.00
12799;BME280;19250;42.646;26.980;2023-11-18T07:53:29;97803.44;;;10.28;100.00
12799;BME280;19250;42.646;26.980;2023-11-18T07:55:57;97813.50;;;10.04;100.00
12799;BME280;19250;42.646;26.980;2023-11-18T07:58:24;97795.63;;;9.83;100.00
12799;BME280;19250;42.646;26.980;2023-11-18T08:00:52;97779.19;;;9.79;100.00
12799;BME280;19250;42.646;26.980;2023-11-18T08:03:20;97795.81;;;9.96;100.00
12799;BME280;19250;42.646;26.980;2023-11-18T08:05:49;97801.31;;;9.65;100.00
12799;BME280;19250;42.646;26.980;2023-11-18T08:08:17;97803.59;;;9.83;100.00
12799;BME280;19250;42.646;26.980;2023-11-18T08:10:44;97813.34;;;9.91;100.00
12799;BME280;19250;42.646;26.980;2023-11-18T08:13:14;97809.47;;;9.78;100.00
12799;BME280;19250;42.646;26.980;2023-11-18T08:15:43;97818.53;;;9.69;100.00
12799;BME280;19250;42.646;26.980;2023-11-18T08:18:11;97838.31;;;9.38;100.00
12799;BME280;19250;42.646;26.980;2023-11-18T08:20:39;97827.44;;;9.47;100.00
12799;BME280;19250;42.646;26.980;2023-11-18T08:23:08;97844.03;;;9.49;100.00
12799;BME280;19250;42.646;26.980;2023-11-18T08:25:36;97857.91;;;9.22;100.00
12799;BME280;19250;42.646;26.980;2023-11-18T08:28:04;97865.03;;;9.44;100.00
12799;BME280;19250;42.646;26.980;2023-11-18T08:30:32;97832.09;;;9.08;100.00
12799;BME280;19250;42.646;26.980;2023-11-18T08:33:00;97836.81;;;8.98;100.00
12799;BME280;19250;42.646;26.980;2023-11-18T08:35:29;97899.63;;;8.99;100.00
12799;BME280;19250;42.646;26.980;2023-11-18T08:37:57;97898.72;;;9.06;100.00
12799;BME280;19250;42.646;26.980;2023-11-18T08:40:27;97835.03;;;8.67;100.00
12799;BME280;19250;42.646;26.980;2023-11-18T08:42:55;97892.75;;;9.04;100.00
12799;BME280;19250;42.646;26.980;2023-11-18T08:45:25;97883.31;;;9.02;100.00
12799;BME280;19250;42.646;26.980;2023-11-18T08:47:55;97878.03;;;8.94;100.00
12799;BME280;19250;42.646;26.980;2023-11-18T08:50:22;97852.66;;;9.14;100.00
12799;BME280;19250;42.646;26.980;2023-11-18T08:52:51;97827.94;;;9.05;100.00
12799;BME280;19250;42.646;26.980;2023-11-18T08:55:23;97775.81;;;8.59;100.00
12799;BME280;19250;42.646;26.980;2023-11-18T08:58:05;97800.75;;;8.72;100.00
12799;BME280;19250;42.646;26.980;2023-11-18T09:00:42;97858.66;;;8.85;100.00
12799;BME280;19250;42.646;26.980;2023-11-18T09:03:12;97854.81;;;8.88;100.00
12799;BME280;19250;42.646;26.980;2023-11-18T09:05:44;97866.41;;;9.17;100.00
12799;BME280;19250;42.646;26.980;2023-11-18T09:08:25;97876.81;;;9.04;100.00
12799;BME280;19250;42.646;26.980;2023-11-18T09:10:56;97870.19;;;9.00;100.00
12799;BME280;19250;42.646;26.980;2023-11-18T09:13:25;97877.59;;;9.36;100.00
12799;BME280;19250;42.646;26.980;2023-11-18T09:15:56;97863.09;;;9.38;100.00
12799;BME280;19250;42.646;26.980;2023-11-18T09:18:25;97867.81;;;9.28;100.00
12799;BME280;19250;42.646;26.980;2023-11-18T09:20:53;97854.09;;;8.94;100.00
12799;BME280;19250;42.646;26.980;2023-11-18T09:23:22;97848.84;;;9.08;100.00
12799;BME280;19250;42.646;26.980;2023-11-18T09:25:51;97851.16;;;9.34;100.00
12799;BME280;19250;42.646;26.980;2023-11-18T09:28:19;97841.91;;;9.07;100.00
12799;BME280;19250;42.646;26.980;2023-11-18T09:30:48;97836.50;;;9.15;100.00
12799;BME280;19250;42.646;26.980;2023-11-18T09:33:20;97743.41;;;8.78;100.00
12799;BME280;19250;42.646;26.980;2023-11-18T09:35:58;97813.69;;;9.58;100.00
12799;BME280;19250;42.646;26.980;2023-11-18T09:38:27;97806.06;;;9.70;100.00
12799;BME280;19250;42.646;26.980;2023-11-18T09:40:57;97821.25;;;9.84;100.00
12799;BME280;19250;42.646;26.980;2023-11-18T09:43:29;97825.16;;;9.73;99.75
12799;BME280;19250;42.646;26.980;2023-11-18T09:46:04;97823.94;;;9.47;100.00
12799;BME280;19250;42.646;26.980;2023-11-18T09:48:43;97838.28;;;9.23;100.00
12799;BME280;19250;42.646;26.980;2023-11-18T09:51:16;97828.06;;;9.49;100.00
12799;BME280;19250;42.646;26.980;2023-11-18T09:53:49;97816.22;;;9.52;100.00
12799;BME280;19250;42.646;26.980;2023-11-18T09:56:21;97793.47;;;9.35;98.96
12799;BME280;19250;42.646;26.980;2023-11-18T09:59:06;97796.19;;;9.26;99.45
12799;BME280;19250;42.646;26.980;2023-11-18T10:01:43;97790.41;;;9.23;100.00
12799;BME280;19250;42.646;26.980;2023-11-18T10:04:13;97669.13;;;8.85;98.85
12799;BME280;19250;42.646;26.980;2023-11-18T10:06:44;97761.66;;;9.41;99.05
12799;BME280;19250;42.646;26.980;2023-11-18T10:09:13;97767.22;;;9.17;99.52
12799;BME280;19250;42.646;26.980;2023-11-18T10:11:47;97761.94;;;9.09;97.66
12799;BME280;19250;42.646;26.980;2023-11-18T10:14:15;97759.50;;;9.22;97.63
12799;BME280;19250;42.646;26.980;2023-11-18T10:16:46;97734.72;;;9.07;98.80
12799;BME280;19250;42.646;26.980;2023-11-18T10:19:15;97778.22;;;9.28;97.25
12799;BME280;19250;42.646;26.980;2023-11-18T10:21:43;97772.66;;;9.67;96.18
12799;BME280;19250;42.646;26.980;2023-11-18T10:24:14;97785.03;;;9.60;94.70
12799;BME280;19250;42.646;26.980;2023-11-18T10:26:46;97767.25;;;9.46;95.36
12799;BME280;19250;42.646;26.980;2023-11-18T10:29:15;97776.66;;;9.19;94.68
12799;BME280;19250;42.646;26.980;2023-11-18T10:31:45;97777.63;;;9.41;94.38
12799;BME280;19250;42.646;26.980;2023-11-18T10:34:13;97778.53;;;9.48;95.45
12799;BME280;19250;42.646;26.980;2023-11-18T10:36:58;97782.72;;;9.28;93.00
12799;BME280;19250;42.646;26.980;2023-11-18T10:39:29;97758.03;;;8.82;93.41
12799;BME280;19250;42.646;26.980;2023-11-18T10:41:59;97792.63;;;8.97;95.33
12799;BME280;19250;42.646;26.980;2023-11-18T10:44:27;97798.81;;;8.66;95.29
12799;BME280;19250;42.646;26.980;2023-11-18T10:46:56;97799.41;;;8.77;96.54
12799;BME280;19250;42.646;26.980;2023-11-18T10:49:24;97804.53;;;8.78;96.98
12799;BME280;19250;42.646;26.980;2023-11-18T10:51:52;97760.91;;;8.50;97.20
12799;BME280;19250;42.646;26.980;2023-11-18T10:54:20;97813.69;;;8.75;95.18
12799;BME280;19250;42.646;26.980;2023-11-18T10:56:49;97802.06;;;8.77;95.62
12799;BME280;19250;42.646;26.980;2023-11-18T10:59:19;97802.69;;;8.87;96.32
12799;BME280;19250;42.646;26.980;2023-11-18T11:01:48;97825.66;;;8.80;95.72
12799;BME280;19250;42.646;26.980;2023-11-18T11:04:18;97820.97;;;8.82;95.96
12799;BME280;19250;42.646;26.980;2023-11-18T11:06:47;97789.53;;;8.62;94.43
12799;BME280;19250;42.646;26.980;2023-11-18T11:09:19;97812.66;;;8.85;95.54
12799;BME280;19250;42.646;26.980;2023-11-18T11:11:53;97807.31;;;8.85;94.80
12799;BME280;19250;42.646;26.980;2023-11-18T11:14:27;97804.75;;;8.77;96.78
12799;BME280;19250;42.646;26.980;2023-11-18T11:17:06;97803.97;;;8.91;95.59
12799;BME280;19250;42.646;26.980;2023-11-18T11:19:46;97791.22;;;8.86;96.22
12799;BME280;19250;42.646;26.980;2023-11-18T11:22:24;97679.59;;;8.18;96.29
12799;BME280;19250;42.646;26.980;2023-11-18T11:25:03;97770.31;;;8.83;96.13
12799;BME280;19250;42.646;26.980;2023-11-18T11:27:41;97733.75;;;8.40;97.22
12799;BME280;19250;42.646;26.980;2023-11-18T11:30:21;97659.47;;;8.01;97.39
12799;BME280;19250;42.646;26.980;2023-11-18T11:32:51;97748.00;;;8.08;99.63
12799;BME280;19250;42.646;26.980;2023-11-18T11:35:23;97739.00;;;8.48;100.00
12799;BME280;19250;42.646;26.980;2023-11-18T11:37:53;97750.56;;;8.32;98.82
12799;BME280;19250;42.646;26.980;2023-11-18T11:40:35;97706.91;;;8.27;99.50
12799;BME280;19250;42.646;26.980;2023-11-18T11:43:06;97710.69;;;8.09;99.93
12799;BME280;19250;42.646;26.980;2023-11-18T11:45:36;97732.84;;;8.16;100.00
12799;BME280;19250;42.646;26.980;2023-11-18T11:48:06;97739.59;;;8.58;99.00
12799;BME280;19250;42.646;26.980;2023-11-18T11:51:05;97747.56;;;8.58;96.64
12799;BME280;19250;42.646;26.980;2023-11-18T11:53:44;97747.09;;;8.77;96.24
12799;BME280;19250;42.646;26.980;2023-11-18T11:56:13;97753.53;;;8.83;95.49
12799;BME280;19250;42.646;26.980;2023-11-18T11:58:46;97749.56;;;8.79;95.04
12799;BME280;19250;42.646;26.980;2023-11-18T12:01:25;97706.81;;;8.65;95.34
12799;BME280;19250;42.646;26.980;2023-11-18T12:03:57;97692.38;;;8.45;94.89
12799;BME280;19250;42.646;26.980;2023-11-18T12:06:34;97743.16;;;8.73;93.55
12799;BME280;19250;42.646;26.980;2023-11-18T12:09:08;97745.06;;;9.02;94.07
12799;BME280;19250;42.646;26.980;2023-11-18T12:11:37;97743.91;;;9.19;91.71
12799;BME280;19250;42.646;26.980;2023-11-18T12:14:08;97725.91;;;9.06;92.86
12799;BME280;19250;42.646;26.980;2023-11-18T12:17:02;97733.84;;;8.92;93.83
12799;BME280;19250;42.646;26.980;2023-11-18T12:19:34;97707.75;;;8.72;94.24
12799;BME280;19250;42.646;26.980;2023-11-18T12:22:16;97731.25;;;8.38;95.66
12799;BME280;19250;42.646;26.980;2023-11-18T12:28:07;97731.16;;;8.32;97.82
12799;BME280;19250;42.646;26.980;2023-11-18T12:30:38;97735.50;;;8.47;97.89
12799;BME280;19250;42.646;26.980;2023-11-18T12:33:09;97738.53;;;8.44;96.29
12799;BME280;19250;42.646;26.980;2023-11-18T12:36:05;97736.00;;;8.73;96.34
12799;BME280;19250;42.646;26.980;2023-11-18T12:41:40;97748.94;;;8.77;94.91
12799;BME280;19250;42.646;26.980;2023-11-18T12:44:28;97730.63;;;8.59;93.54
12799;BME280;19250;42.646;26.980;2023-11-18T12:46:59;97734.59;;;8.40;94.29
12799;BME280;19250;42.646;26.980;2023-11-18T12:49:37;97740.47;;;8.50;95.20
12799;BME280;19250;42.646;26.980;2023-11-18T12:52:07;97700.78;;;8.26;96.40
12799;BME280;19250;42.646;26.980;2023-11-18T12:54:37;97734.28;;;8.58;95.52
12799;BME280;19250;42.646;26.980;2023-11-18T12:57:07;97746.09;;;8.55;95.14
12799;BME280;19250;42.646;26.980;2023-11-18T12:59:34;97744.53;;;8.38;96.69
12799;BME280;19250;42.646;26.980;2023-11-18T13:02:06;97744.44;;;8.54;96.18
12799;BME280;19250;42.646;26.980;2023-11-18T13:04:39;97753.81;;;8.42;96.58
12799;BME280;19250;42.646;26.980;2023-11-18T13:07:07;97762.19;;;8.23;97.46